createdAt,value
2022-08-12T00:00:18.304Z,987.8
2022-08-12T00:02:19.263Z,987.8
2022-08-12T00:04:21.097Z,987.9
2022-08-12T00:06:22.979Z,987.8
2022-08-12T00:08:28.502Z,987.9
2022-08-12T00:10:25.420Z,987.9
2022-08-12T00:12:26.594Z,987.8
2022-08-12T00:14:28.219Z,987.9
2022-08-12T00:16:39.032Z,987.8
2022-08-12T00:18:31.516Z,987.8
2022-08-12T00:19:15.292Z,987.9
2022-08-12T00:21:16.662Z,987.9
2022-08-12T00:23:18.484Z,987.8
2022-08-12T00:25:19.790Z,987.9
2022-08-12T00:27:21.072Z,987.9
2022-08-12T00:29:22.382Z,987.9
2022-08-12T00:31:23.778Z,987.9
2022-08-12T00:33:25.617Z,987.9
2022-08-12T00:35:26.780Z,987.8
2022-08-12T00:37:28.290Z,987.9
2022-08-12T00:39:29.625Z,987.9
2022-08-12T00:41:30.976Z,987.8
2022-08-12T00:43:32.536Z,987.8
2022-08-12T00:45:33.569Z,987.9
2022-08-12T00:47:35.096Z,987.9
2022-08-12T00:49:36.169Z,988
2022-08-12T00:51:37.332Z,987.9
2022-08-12T00:53:39.186Z,987.9
2022-08-12T00:57:41.775Z,988
2022-08-12T00:59:42.743Z,988
2022-08-12T01:02:00.730Z,988
2022-08-12T01:03:44.992Z,988
2022-08-12T01:05:46.207Z,988
2022-08-12T01:07:47.580Z,987.9
2022-08-12T01:09:48.682Z,987.9
2022-08-12T01:11:50.329Z,987.9
2022-08-12T01:13:51.686Z,987.9
2022-08-12T01:15:53.309Z,987.9
2022-08-12T01:17:54.381Z,987.9
2022-08-12T01:19:55.788Z,987.9
2022-08-12T01:21:56.830Z,987.9
2022-08-12T01:23:58.288Z,987.9
2022-08-12T01:25:59.880Z,987.9
2022-08-12T01:28:01.665Z,987.9
2022-08-12T01:30:02.686Z,988
2022-08-12T01:32:04.306Z,988
2022-08-12T01:34:05.633Z,987.9
2022-08-12T01:36:08.160Z,988
2022-08-12T01:40:31.760Z,987.9
2022-08-12T01:42:11.576Z,987.9
2022-08-12T01:44:12.770Z,988
2022-08-12T01:46:14.466Z,988
2022-08-12T01:48:15.759Z,987.9
2022-08-12T01:50:17.240Z,987.9
2022-08-12T01:52:21.937Z,987.9
2022-08-12T01:54:19.574Z,987.9
2022-08-12T01:56:20.635Z,987.8
2022-08-12T01:58:21.615Z,987.8
2022-08-12T02:00:22.586Z,987.8
2022-08-12T02:02:23.571Z,987.9
2022-08-12T02:04:25.473Z,987.9
2022-08-12T02:06:26.977Z,987.8
2022-08-12T02:08:28.282Z,987.8
2022-08-12T02:10:49.787Z,987.8
2022-08-12T02:12:39.024Z,987.8
2022-08-12T02:14:32.440Z,987.7
2022-08-12T02:16:34.342Z,987.7
2022-08-12T02:18:35.885Z,987.8
2022-08-12T02:20:50.949Z,987.8
2022-08-12T02:22:39.042Z,987.7
2022-08-12T02:26:41.830Z,987.8
2022-08-12T02:28:43.765Z,987.7
2022-08-12T02:30:45.513Z,987.7
2022-08-12T02:32:46.881Z,987.6
2022-08-12T02:34:48.651Z,987.6
2022-08-12T02:36:50.264Z,987.6
2022-08-12T02:38:51.732Z,987.6
2022-08-12T02:40:53.132Z,987.6
2022-08-12T02:42:54.671Z,987.6
2022-08-12T02:44:56.479Z,987.6
2022-08-12T02:46:57.552Z,987.6
2022-08-12T02:48:59.219Z,987.6
2022-08-12T02:51:01.037Z,987.6
2022-08-12T02:53:02.590Z,987.6
2022-08-12T02:55:04.205Z,987.6
2022-08-12T02:59:07.353Z,987.5
2022-08-12T03:01:09.146Z,987.4
2022-08-12T03:03:10.128Z,987.5
2022-08-12T03:05:11.509Z,987.5
2022-08-12T03:07:12.688Z,987.5
2022-08-12T03:09:14.577Z,987.6
2022-08-12T03:11:16.318Z,987.5
2022-08-12T03:13:17.273Z,987.5
2022-08-12T03:15:18.262Z,987.6
2022-08-12T03:19:20.956Z,987.6
2022-08-12T03:21:52.438Z,987.6
2022-08-12T03:23:29.483Z,987.6
2022-08-12T03:25:24.107Z,987.6
2022-08-12T03:27:25.921Z,987.7
2022-08-12T03:29:26.927Z,987.7
2022-08-12T03:31:27.874Z,987.6
2022-08-12T03:33:29.365Z,987.7
2022-08-12T03:35:40.097Z,987.6
2022-08-12T03:37:31.616Z,987.7
2022-08-12T03:39:35.768Z,987.7
2022-08-12T03:43:36.164Z,987.6
2022-08-12T03:45:38.430Z,987.7
2022-08-12T03:47:39.145Z,987.6
2022-08-12T03:49:40.666Z,987.6
2022-08-12T03:51:41.905Z,987.6
2022-08-12T03:53:43.305Z,987.7
2022-08-12T03:55:44.611Z,987.7
2022-08-12T03:57:46.431Z,987.7
2022-08-12T03:59:47.357Z,987.7
2022-08-12T04:01:48.801Z,987.7
2022-08-12T04:03:50.316Z,987.7
2022-08-12T04:05:54.840Z,987.7
2022-08-12T04:09:55.405Z,987.7
2022-08-12T04:11:56.415Z,987.7
2022-08-12T04:13:57.791Z,987.6
2022-08-12T04:15:59.266Z,987.7
2022-08-12T04:18:06.196Z,987.6
2022-08-12T04:20:01.965Z,987.7
2022-08-12T04:22:03.635Z,987.8
2022-08-12T04:24:04.942Z,987.7
2022-08-12T04:26:06.616Z,987.8
2022-08-12T04:28:13.069Z,987.8
2022-08-12T04:30:17.277Z,987.8
2022-08-12T04:32:11.158Z,987.8
2022-08-12T04:34:12.364Z,987.6
2022-08-12T04:36:13.825Z,987.8
2022-08-12T04:38:15.382Z,987.7
2022-08-12T04:40:16.668Z,987.8
2022-08-12T04:42:18.085Z,987.7
2022-08-12T04:44:19.754Z,987.8
2022-08-12T04:46:23.965Z,987.8
2022-08-12T04:48:21.905Z,987.8
2022-08-12T04:52:24.858Z,987.8
2022-08-12T04:54:26.736Z,987.7
2022-08-12T04:56:27.899Z,987.7
2022-08-12T04:58:30.055Z,987.7
2022-08-12T05:00:30.392Z,987.7
2022-08-12T05:02:32.349Z,987.8
2022-08-12T05:04:33.553Z,987.7
2022-08-12T05:06:35.038Z,987.8
2022-08-12T05:08:36.625Z,987.8
2022-08-12T05:10:38.054Z,987.7
2022-08-12T05:12:39.091Z,987.7
2022-08-12T05:14:40.728Z,987.7
2022-08-12T05:16:42.387Z,987.8
2022-08-12T05:18:44.522Z,987.8
2022-08-12T05:20:44.753Z,987.8
2022-08-12T05:22:46.084Z,987.7
2022-08-12T05:24:47.594Z,987.9
2022-08-12T05:26:48.848Z,987.8
2022-08-12T05:28:50.418Z,987.9
2022-08-12T05:30:51.972Z,987.9
2022-08-12T05:32:53.677Z,987.8
2022-08-12T05:34:54.951Z,987.8
2022-08-12T05:36:56.377Z,987.9
2022-08-12T05:38:57.943Z,987.9
2022-08-12T05:40:59.378Z,987.9
2022-08-12T05:43:01.156Z,987.9
2022-08-12T05:45:02.942Z,987.8
2022-08-12T05:47:04.341Z,987.9
2022-08-12T05:51:06.633Z,988
2022-08-12T05:53:07.720Z,988
2022-08-12T05:55:09.460Z,988
2022-08-12T05:57:10.362Z,988
2022-08-12T05:59:11.534Z,988
2022-08-12T06:02:08.493Z,988
2022-08-12T06:03:13.788Z,988
2022-08-12T06:07:37.221Z,988.1
2022-08-12T06:09:17.597Z,988
2022-08-12T06:11:19.005Z,988.1
2022-08-12T06:13:25.560Z,988
2022-08-12T06:15:21.691Z,988
2022-08-12T06:17:22.734Z,988
2022-08-12T06:19:24.052Z,988
2022-08-12T06:21:25.327Z,988
2022-08-12T06:23:26.551Z,988
2022-08-12T06:25:27.940Z,988
2022-08-12T06:27:29.369Z,988.1
2022-08-12T06:30:07.610Z,988.1
2022-08-12T06:31:31.804Z,988.1
2022-08-12T06:33:55.158Z,988.1
2022-08-12T06:35:46.951Z,988
2022-08-12T06:37:35.574Z,988.1
2022-08-12T06:39:36.709Z,988.1
2022-08-12T06:41:38.345Z,988
2022-08-12T06:44:05.242Z,988
2022-08-12T06:45:45.159Z,988
2022-08-12T06:47:41.692Z,988
2022-08-12T06:49:42.756Z,988
2022-08-12T06:51:53.519Z,988
2022-08-12T06:53:45.450Z,988
2022-08-12T06:55:56.925Z,988
2022-08-12T06:58:04.500Z,987.9
2022-08-12T06:59:48.918Z,988
2022-08-12T07:01:50.933Z,987.9
2022-08-12T07:03:51.709Z,988
2022-08-12T07:04:37.703Z,987.9
2022-08-12T07:08:38.063Z,987.9
2022-08-12T07:10:39.242Z,987.9
2022-08-12T07:12:40.313Z,987.8
2022-08-12T07:14:42.880Z,987.8
2022-08-12T07:16:42.398Z,987.9
2022-08-12T07:18:43.322Z,987.9
2022-08-12T07:20:52.056Z,987.8
2022-08-12T07:22:46.152Z,987.9
2022-08-12T07:24:47.089Z,987.9
2022-08-12T07:26:48.725Z,987.8
2022-08-12T07:28:49.550Z,987.9
2022-08-12T07:30:50.574Z,987.9
2022-08-12T07:32:51.905Z,987.8
2022-08-12T07:34:53.408Z,987.8
2022-08-12T07:36:54.341Z,987.7
2022-08-12T07:38:55.415Z,987.6
2022-08-12T07:42:57.933Z,987.7
2022-08-12T07:44:59.119Z,987.8
2022-08-12T07:47:00.414Z,987.8
2022-08-12T07:49:01.816Z,987.7
2022-08-12T07:51:03.015Z,987.7
2022-08-12T07:53:04.766Z,987.7
2022-08-12T07:55:06.238Z,987.7
2022-08-12T07:57:07.983Z,987.6
2022-08-12T07:59:09.186Z,987.7
2022-08-12T08:01:11.920Z,987.7
2022-08-12T08:03:10.996Z,987.5
2022-08-12T08:05:12.529Z,987.6
2022-08-12T08:09:15.039Z,987.6
2022-08-12T08:11:16.801Z,987.6
2022-08-12T08:13:17.997Z,987.5
2022-08-12T08:15:19.180Z,987.6
2022-08-12T08:17:20.440Z,987.6
2022-08-12T08:19:21.573Z,987.6
2022-08-12T08:21:22.403Z,987.7
2022-08-12T08:23:29.395Z,987.6
2022-08-12T08:25:35.467Z,987.6
2022-08-12T08:29:28.065Z,987.6
2022-08-12T08:31:29.485Z,987.6
2022-08-12T08:34:04.535Z,987.6
2022-08-12T08:35:38.797Z,987.5
2022-08-12T08:37:33.547Z,987.6
2022-08-12T08:39:33.663Z,987.5
2022-08-12T08:42:13.762Z,987.4
2022-08-12T08:43:43.168Z,987.6
2022-08-12T08:45:37.394Z,987.5
2022-08-12T08:47:38.462Z,987.5
2022-08-12T08:49:39.961Z,987.6
2022-08-12T08:51:41.256Z,987.5
2022-08-12T08:53:42.063Z,987.5
2022-08-12T08:57:44.903Z,987.5
2022-08-12T08:59:46.071Z,987.5
2022-08-12T09:01:47.147Z,987.4
2022-08-12T09:05:10.192Z,987.4
2022-08-12T09:06:01.929Z,987.4
2022-08-12T09:07:52.087Z,987.4
2022-08-12T09:10:01.765Z,987.3
2022-08-12T09:12:07.746Z,987.4
2022-08-12T09:14:10.301Z,987.4
2022-08-12T09:15:57.599Z,987.4
2022-08-12T09:17:59.109Z,987.3
2022-08-12T09:19:59.574Z,987.3
2022-08-12T09:24:05.746Z,987.3
2022-08-12T09:26:03.806Z,987.3
2022-08-12T09:28:05.298Z,987.2
2022-08-12T09:30:09.396Z,987.2
2022-08-12T09:32:09.110Z,987.3
2022-08-12T09:34:24.919Z,987.2
2022-08-12T09:36:09.586Z,987.3
2022-08-12T09:38:27.759Z,987.3
2022-08-12T09:40:58.169Z,987.4
2022-08-12T09:42:35.332Z,987.3
2022-08-12T09:44:17.050Z,987.3
2022-08-12T09:46:21.280Z,987.4
2022-08-12T09:48:19.653Z,987.4
2022-08-12T09:50:20.223Z,987.3
2022-08-12T09:52:19.354Z,987.3
2022-08-12T09:54:31.385Z,987.2
2022-08-12T09:56:57.595Z,987.2
2022-08-12T10:00:28.223Z,987.1
2022-08-12T10:02:43.430Z,987.1
2022-08-12T10:06:32.162Z,987.1
2022-08-12T10:08:29.480Z,987
2022-08-12T10:10:30.842Z,987
2022-08-12T10:12:32.836Z,987.1
2022-08-12T10:14:34.395Z,987.1
2022-08-12T10:16:39.244Z,987
2022-08-12T10:18:35.988Z,986.9
2022-08-12T10:20:36.690Z,987
2022-08-12T10:22:39.601Z,987
2022-08-12T10:24:38.738Z,986.9
2022-08-12T10:26:40.189Z,986.9
2022-08-12T10:28:41.147Z,986.8
2022-08-12T10:30:44.263Z,986.7
2022-08-12T10:32:47.051Z,986.7
2022-08-12T10:36:45.901Z,986.7
2022-08-12T10:38:47.891Z,986.7
2022-08-12T10:40:49.133Z,986.8
2022-08-12T10:42:50.303Z,986.7
2022-08-12T10:44:51.874Z,986.7
2022-08-12T10:46:53.366Z,986.7
2022-08-12T10:48:55.828Z,986.7
2022-08-12T10:51:03.260Z,986.7
2022-08-12T10:52:57.625Z,986.7
2022-08-12T10:54:58.699Z,986.7
2022-08-12T10:57:00.444Z,986.6
2022-08-12T10:59:02.094Z,986.5
2022-08-12T11:01:26.425Z,986.6
2022-08-12T11:07:04.360Z,986.6
2022-08-12T11:08:35.398Z,986.5
2022-08-12T11:09:10.239Z,986.5
2022-08-12T11:11:09.776Z,986.4
2022-08-12T11:13:10.448Z,986.5
2022-08-12T11:15:14.881Z,986.5
2022-08-12T11:17:35.091Z,986.5
2022-08-12T11:19:15.250Z,986.4
2022-08-12T11:21:16.892Z,986.3
2022-08-12T11:23:24.746Z,986.3
2022-08-12T11:25:19.219Z,986.4
2022-08-12T11:27:20.650Z,986.4
2022-08-12T11:31:23.818Z,986.3
2022-08-12T11:34:03.791Z,986.3
2022-08-12T11:35:26.222Z,986.3
2022-08-12T11:37:27.049Z,986.2
2022-08-12T11:41:31.934Z,986.2
2022-08-12T11:43:31.160Z,986.2
2022-08-12T11:45:38.873Z,986.1
2022-08-12T11:47:33.022Z,986.3
2022-08-12T11:49:33.970Z,986.2
2022-08-12T11:51:36.414Z,986
2022-08-12T11:53:56.697Z,986
2022-08-12T11:55:45.397Z,986.1
2022-08-12T11:58:01.413Z,986.1
2022-08-12T12:02:00.689Z,986.2
2022-08-12T12:03:44.279Z,986
2022-08-12T12:05:45.731Z,986.1
2022-08-12T12:08:36.843Z,986
2022-08-12T12:09:52.101Z,986.1
2022-08-12T12:11:48.551Z,986.1
2022-08-12T12:14:06.966Z,986
2022-08-12T12:15:50.004Z,986
2022-08-12T12:17:51.245Z,986.1
2022-08-12T12:19:52.439Z,985.9
2022-08-12T12:21:53.543Z,985.9
2022-08-12T12:23:54.935Z,986
2022-08-12T12:25:59.167Z,986
2022-08-12T12:28:03.783Z,985.9
2022-08-12T12:30:14.681Z,986
2022-08-12T12:32:09.030Z,985.9
2022-08-12T12:34:01.411Z,985.8
2022-08-12T12:36:06.787Z,985.7
2022-08-12T12:38:11.856Z,985.8
2022-08-12T12:40:05.988Z,985.7
2022-08-12T12:42:44.538Z,985.8
2022-08-12T12:46:09.905Z,985.8
2022-08-12T12:48:10.880Z,985.8
2022-08-12T12:50:12.465Z,985.8
2022-08-12T12:52:19.168Z,985.8
2022-08-12T12:54:16.226Z,985.7
2022-08-12T12:56:15.901Z,985.7
2022-08-12T12:58:16.893Z,985.6
2022-08-12T13:00:18.081Z,985.5
2022-08-12T13:02:31.448Z,985.6
2022-08-12T13:04:21.026Z,985.7
2022-08-12T13:06:22.370Z,985.7
2022-08-12T13:08:28.177Z,985.7
2022-08-12T13:10:24.950Z,985.6
2022-08-12T13:12:25.832Z,985.6
2022-08-12T13:14:28.546Z,985.7
2022-08-12T13:16:28.379Z,985.6
2022-08-12T13:18:29.977Z,985.5
2022-08-12T13:22:32.982Z,985.5
2022-08-12T13:24:33.860Z,985.5
2022-08-12T13:26:34.711Z,985.5
2022-08-12T13:28:36.188Z,985.5
2022-08-12T13:30:36.976Z,985.4
2022-08-12T13:32:38.042Z,985.5
2022-08-12T13:34:39.234Z,985.4
2022-08-12T13:36:40.452Z,985.4
2022-08-12T13:38:41.683Z,985.3
2022-08-12T13:40:42.730Z,985.4
2022-08-12T13:42:44.313Z,985.4
2022-08-12T13:44:46.245Z,985.5
2022-08-12T13:46:58.287Z,985.5
2022-08-12T13:48:48.384Z,985.5
2022-08-12T13:49:54.330Z,985.5
2022-08-12T13:51:40.697Z,985.4
2022-08-12T13:53:40.142Z,985.4
2022-08-12T13:55:36.359Z,985.4
2022-08-12T13:57:37.588Z,985.5
2022-08-12T13:59:47.838Z,985.4
2022-08-12T14:01:40.231Z,985.5
2022-08-12T14:03:50.760Z,985.4
2022-08-12T14:05:42.597Z,985.4
2022-08-12T14:07:46.039Z,985.3
2022-08-12T14:09:45.246Z,985.2
2022-08-12T14:11:51.192Z,985.2
2022-08-12T14:14:04.435Z,985.3
2022-08-12T14:15:48.784Z,985.3
2022-08-12T14:19:54.354Z,985.3
2022-08-12T14:21:58.962Z,985.5
2022-08-12T14:24:02.139Z,985.4
2022-08-12T14:25:55.665Z,985.4
2022-08-12T14:28:02.976Z,985.4
2022-08-12T14:30:05.291Z,985.4
2022-08-12T14:32:00.161Z,985.4
2022-08-12T14:34:02.292Z,985.4
2022-08-12T14:36:02.500Z,985.3
2022-08-12T14:38:03.855Z,985.3
2022-08-12T14:40:04.818Z,985.4
2022-08-12T14:42:06.249Z,985.2
2022-08-12T14:44:58.427Z,985.3
2022-08-12T14:46:09.296Z,985.4
2022-08-12T14:48:10.394Z,985.3
2022-08-12T14:50:34.627Z,985.2
2022-08-12T14:52:54.851Z,985.3
2022-08-12T14:56:30.625Z,985.3
2022-08-12T14:58:18.426Z,985.2
2022-08-12T15:00:19.244Z,985.2
2022-08-12T15:04:21.541Z,985.2
2022-08-12T15:06:39.976Z,985.2
2022-08-12T15:08:23.937Z,985.2
2022-08-12T15:10:32.601Z,985.2
2022-08-12T15:12:26.342Z,985.1
2022-08-12T15:14:30.121Z,985.1
2022-08-12T15:18:30.493Z,985.1
2022-08-12T15:20:37.651Z,985.1
2022-08-12T15:22:36.308Z,985.1
2022-08-12T15:24:34.421Z,985.1
2022-08-12T15:26:37.846Z,985.2
2022-08-12T15:28:37.351Z,985.1
2022-08-12T15:30:38.657Z,985.1
2022-08-12T15:32:40.532Z,985.2
2022-08-12T15:34:41.228Z,985.1
2022-08-12T15:36:54.453Z,985.1
2022-08-12T15:38:43.654Z,985.1
2022-08-12T15:40:46.959Z,985.1
2022-08-12T15:42:46.784Z,985.2
2022-08-12T15:46:48.701Z,985
2022-08-12T15:48:49.507Z,985.1
2022-08-12T15:50:52.937Z,985.1
2022-08-12T15:52:52.324Z,985.1
2022-08-12T15:54:53.692Z,985.1
2022-08-12T15:56:54.937Z,985
2022-08-12T15:58:56.482Z,985.2
2022-08-12T16:02:59.680Z,985
2022-08-12T16:05:00.296Z,985
2022-08-12T16:07:05.669Z,985.1
2022-08-12T16:09:03.274Z,985
2022-08-12T16:11:07.124Z,985.1
2022-08-12T16:13:05.663Z,985
2022-08-12T16:15:06.410Z,984.9
2022-08-12T16:17:08.929Z,985
2022-08-12T16:19:19.201Z,985
2022-08-12T16:21:10.835Z,984.9
2022-08-12T16:23:21.465Z,984.9
2022-08-12T16:25:12.797Z,984.9
2022-08-12T16:27:13.634Z,984.9
2022-08-12T16:29:16.303Z,984.9
2022-08-12T16:31:23.536Z,985
2022-08-12T16:33:17.945Z,985
2022-08-12T16:35:19.367Z,985
2022-08-12T16:37:21.411Z,984.9
2022-08-12T16:39:21.370Z,985
2022-08-12T16:41:22.496Z,985
2022-08-12T16:43:23.797Z,984.9
2022-08-12T16:45:31.984Z,984.9
2022-08-12T16:47:26.523Z,984.8
2022-08-12T16:49:27.231Z,984.8
2022-08-12T16:51:28.357Z,984.7
2022-08-12T16:53:30.557Z,984.7
2022-08-12T16:55:33.963Z,984.8
2022-08-12T16:57:34.752Z,984.7
2022-08-12T16:59:53.084Z,984.7
2022-08-12T17:01:34.699Z,984.7
2022-08-12T17:03:36.744Z,984.7
2022-08-12T17:05:37.173Z,984.7
2022-08-12T17:07:37.510Z,984.8
2022-08-12T17:09:39.968Z,984.8
2022-08-12T17:11:40.280Z,984.8
2022-08-12T17:13:42.936Z,984.7
2022-08-12T17:15:51.534Z,984.8
2022-08-12T17:17:44.433Z,984.9
2022-08-12T17:20:16.846Z,984.9
2022-08-12T17:21:52.056Z,984.8
2022-08-12T17:23:48.220Z,984.9
2022-08-12T17:25:49.190Z,984.8
2022-08-12T17:27:57.414Z,985
2022-08-12T17:30:00.530Z,984.9
2022-08-12T17:32:00.065Z,984.9
2022-08-12T17:33:55.580Z,985
2022-08-12T17:35:55.421Z,985
2022-08-12T17:37:57.154Z,984.9
2022-08-12T17:40:07.593Z,984.9
2022-08-12T17:44:00.862Z,984.9
2022-08-12T17:46:02.862Z,985
2022-08-12T17:48:05.036Z,984.9
2022-08-12T17:50:05.982Z,984.9
2022-08-12T17:52:06.363Z,984.9
2022-08-12T17:54:11.911Z,984.9
2022-08-12T17:56:08.510Z,984.9
2022-08-12T17:58:09.723Z,985
2022-08-12T18:00:11.247Z,984.9
2022-08-12T18:02:12.174Z,985
2022-08-12T18:04:21.087Z,985
2022-08-12T18:06:14.920Z,985
2022-08-12T18:08:15.949Z,985
2022-08-12T18:10:16.855Z,985
2022-08-12T18:12:24.388Z,985
2022-08-12T18:14:22.577Z,985
2022-08-12T18:16:23.254Z,985
2022-08-12T18:18:21.871Z,985
2022-08-12T18:22:31.101Z,985
2022-08-12T18:26:27.606Z,985
2022-08-12T18:28:29.385Z,985.1
2022-08-12T18:30:30.690Z,985.1
2022-08-12T18:32:44.232Z,985.1
2022-08-12T18:34:33.170Z,985.2
2022-08-12T18:36:34.248Z,985.2
2022-08-12T18:38:35.323Z,985.3
2022-08-12T18:40:36.969Z,985.2
2022-08-12T18:42:38.189Z,985.2
2022-08-12T18:44:39.284Z,985.2
2022-08-12T18:46:40.907Z,985.2
2022-08-12T18:48:42.341Z,985.2
2022-08-12T18:50:49.745Z,985.3
2022-08-12T18:52:45.025Z,985.3
2022-08-12T18:54:47.993Z,985.3
2022-08-12T18:56:47.777Z,985.4
2022-08-12T18:58:59.217Z,985.4
2022-08-12T19:00:51.336Z,985.4
2022-08-12T19:02:51.337Z,985.4
2022-08-12T19:04:53.100Z,985.5
2022-08-12T19:08:55.739Z,985.5
2022-08-12T19:10:56.783Z,985.5
2022-08-12T19:12:58.234Z,985.5
2022-08-12T19:15:03.667Z,985.6
2022-08-12T19:17:00.623Z,985.5
2022-08-12T19:19:02.014Z,985.6
2022-08-12T19:21:06.768Z,985.6
2022-08-12T19:23:07.530Z,985.6
2022-08-12T19:27:08.458Z,985.6
2022-08-12T19:29:09.376Z,985.6
2022-08-12T19:31:11.002Z,985.6
2022-08-12T19:33:12.323Z,985.7
2022-08-12T19:37:14.820Z,985.6
2022-08-12T19:39:22.988Z,985.7
2022-08-12T19:41:22.642Z,985.6
2022-08-12T19:43:19.883Z,985.6
2022-08-12T19:45:20.449Z,985.7
2022-08-12T19:47:22.180Z,985.7
2022-08-12T19:49:23.072Z,985.7
2022-08-12T19:51:24.850Z,985.7
2022-08-12T19:53:27.558Z,985.8
2022-08-12T19:55:27.667Z,985.7
2022-08-12T19:57:29.035Z,985.7
2022-08-12T19:59:42.753Z,985.7
2022-08-12T20:01:33.750Z,985.7
2022-08-12T20:03:37.850Z,985.7
2022-08-12T20:06:04.148Z,985.8
2022-08-12T20:07:42.803Z,985.8
2022-08-12T20:09:38.970Z,985.8
2022-08-12T20:12:08.860Z,985.8
2022-08-12T20:13:42.108Z,985.9
2022-08-12T20:15:44.285Z,985.9
2022-08-12T20:17:50.600Z,985.9
2022-08-12T20:19:53.469Z,985.9
2022-08-12T20:21:46.030Z,985.8
2022-08-12T20:23:50.569Z,985.8
2022-08-12T20:25:52.050Z,985.8
2022-08-12T20:28:03.762Z,985.8
2022-08-12T20:29:54.352Z,985.8
2022-08-12T20:31:52.083Z,985.8
2022-08-12T20:33:56.538Z,985.8
2022-08-12T20:36:41.800Z,985.8
2022-08-12T20:38:40.496Z,985.9
2022-08-12T20:40:41.734Z,985.8
2022-08-12T20:42:43.512Z,985.8
2022-08-12T20:44:45.019Z,985.8
2022-08-12T20:46:46.011Z,985.9
2022-08-12T20:48:46.893Z,985.9
2022-08-12T20:50:51.940Z,985.8
2022-08-12T20:52:49.591Z,985.9
2022-08-12T20:54:51.442Z,985.8
2022-08-12T20:58:54.036Z,985.8
2022-08-12T21:00:55.164Z,985.8
2022-08-12T21:02:56.804Z,985.8
2022-08-12T21:04:57.939Z,985.8
2022-08-12T21:07:04.814Z,985.8
2022-08-12T21:09:01.066Z,985.8
2022-08-12T21:11:02.649Z,985.8
2022-08-12T21:15:16.838Z,985.9
2022-08-12T21:17:07.381Z,985.9
2022-08-12T21:19:11.761Z,985.8
2022-08-12T21:21:23.266Z,985.8
2022-08-12T21:23:11.646Z,985.9
2022-08-12T21:25:14.127Z,985.9
2022-08-12T21:27:17.130Z,985.9
2022-08-12T21:29:16.612Z,986
2022-08-12T21:32:38.210Z,985.9
2022-08-12T21:33:19.440Z,985.8
2022-08-12T21:35:20.373Z,985.8
2022-08-12T21:37:26.687Z,986
2022-08-12T21:39:24.764Z,986
2022-08-12T21:43:24.688Z,986
2022-08-12T21:45:45.062Z,986.1
2022-08-12T21:47:28.606Z,986.1
2022-08-12T21:49:40.594Z,986
2022-08-12T21:51:48.842Z,986.1
2022-08-12T21:54:06.713Z,986
2022-08-12T21:55:33.252Z,986.1
2022-08-12T21:57:36.111Z,986.1
2022-08-12T21:59:36.101Z,986.1
2022-08-12T22:01:44.233Z,986.2
2022-08-12T22:04:02.428Z,986.2
2022-08-12T22:05:39.558Z,986.2
2022-08-12T22:07:46.477Z,986.3
2022-08-12T22:09:43.766Z,986.2
2022-08-12T22:11:49.472Z,986.3
2022-08-12T22:14:02.891Z,986.2
2022-08-12T22:15:50.986Z,986.2
2022-08-12T22:17:49.793Z,986.2
2022-08-12T22:19:50.264Z,986.2
2022-08-12T22:21:52.196Z,986.2
2022-08-12T22:24:04.590Z,986.2
2022-08-12T22:25:53.463Z,986.1
2022-08-12T22:27:54.713Z,986.1
2022-08-12T22:29:55.653Z,986.2
2022-08-12T22:31:57.957Z,986.2
2022-08-12T22:33:59.837Z,986
2022-08-12T22:36:00.154Z,986
2022-08-12T22:38:01.005Z,986
2022-08-12T22:40:02.921Z,986
2022-08-12T22:42:03.814Z,986.1
2022-08-12T22:44:05.460Z,986.2
2022-08-12T22:46:06.409Z,986.2
2022-08-12T22:48:07.821Z,986.1
2022-08-12T22:50:09.591Z,986.1
2022-08-12T22:52:10.947Z,986.1
2022-08-12T22:54:35.367Z,986.1
2022-08-12T22:56:14.359Z,986.2
2022-08-12T22:58:14.673Z,986.1
2022-08-12T23:00:24.862Z,986.1
2022-08-12T23:02:17.281Z,986
2022-08-12T23:04:21.870Z,986
2022-08-12T23:06:20.309Z,986
2022-08-12T23:08:21.618Z,986
2022-08-12T23:10:23.341Z,986
2022-08-12T23:12:25.107Z,986.1
2022-08-12T23:14:27.194Z,985.9
2022-08-12T23:16:28.756Z,986
2022-08-12T23:18:29.933Z,986
2022-08-12T23:20:30.203Z,985.9
2022-08-12T23:22:35.604Z,985.9
2022-08-12T23:24:32.587Z,985.9
2022-08-12T23:26:33.838Z,985.9
2022-08-12T23:28:34.924Z,985.8
2022-08-12T23:30:39.113Z,985.8
2022-08-12T23:32:37.759Z,985.8
2022-08-12T23:34:39.265Z,985.9
2022-08-12T23:36:40.406Z,985.9
2022-08-12T23:38:42.269Z,985.9
2022-08-12T23:40:43.548Z,985.9
2022-08-12T23:42:44.967Z,985.9
2022-08-12T23:44:46.002Z,985.9
2022-08-12T23:46:48.315Z,985.9
2022-08-12T23:48:50.584Z,985.9
2022-08-12T23:50:50.560Z,985.9
2022-08-12T23:52:51.561Z,985.8
2022-08-12T23:54:57.948Z,985.9
2022-08-12T23:56:54.495Z,985.9
2022-08-12T23:58:57.664Z,985.9
